createdAt,value
2022-11-10T00:01:43.427Z,2.10
2022-11-10T00:04:13.312Z,2.38
2022-11-10T00:06:44.717Z,2.10
2022-11-10T00:09:14.958Z,1.55
2022-11-10T00:11:47.655Z,1.45
2022-11-10T00:14:29.974Z,1.80
2022-11-10T00:17:05.715Z,2.03
2022-11-10T00:19:37.151Z,1.70
2022-11-10T00:22:07.011Z,1.88
2022-11-10T00:24:37.045Z,1.70
2022-11-10T00:27:09.610Z,1.63
2022-11-10T00:29:39.459Z,1.42
2022-11-10T00:32:09.381Z,1.60
2022-11-10T00:34:39.499Z,1.27
2022-11-10T00:37:09.443Z,1.48
2022-11-10T00:39:39.393Z,1.33
2022-11-10T00:42:12.080Z,1.50
2022-11-10T00:44:41.998Z,1.58
2022-11-10T00:47:11.878Z,2.08
2022-11-10T00:49:41.744Z,1.75
2022-11-10T00:52:11.795Z,2.00
2022-11-10T00:54:41.746Z,2.03
2022-11-10T00:57:14.163Z,1.75
2022-11-10T00:59:43.993Z,1.63
2022-11-10T01:02:13.841Z,1.80
2022-11-10T01:04:43.677Z,1.90
2022-11-10T01:07:13.555Z,1.83
2022-11-10T01:09:43.434Z,1.60
2022-11-10T01:12:15.910Z,1.55
2022-11-10T01:14:45.815Z,1.77
2022-11-10T01:17:15.662Z,1.60
2022-11-10T01:19:45.717Z,1.60
2022-11-10T01:22:15.565Z,1.52
2022-11-10T01:24:45.466Z,1.70
2022-11-10T01:27:17.867Z,1.85
2022-11-10T01:29:47.712Z,1.50
2022-11-10T01:32:17.563Z,1.98
2022-11-10T01:34:47.840Z,1.70
2022-11-10T01:37:17.875Z,1.63
2022-11-10T01:39:47.735Z,1.42
2022-11-10T01:42:27.631Z,1.40
2022-11-10T01:45:51.698Z,1.65
2022-11-10T01:48:31.542Z,1.60
2022-11-10T01:51:05.194Z,1.98
2022-11-10T01:53:38.800Z,1.65
2022-11-10T01:56:12.116Z,1.40
2022-11-10T01:58:52.031Z,1.67
2022-11-10T02:01:22.130Z,1.65
2022-11-10T02:03:54.644Z,2.00
2022-11-10T02:06:29.066Z,1.60
2022-11-10T02:09:00.391Z,1.80
2022-11-10T02:11:31.728Z,1.70
2022-11-10T02:14:04.525Z,1.50
2022-11-10T02:16:35.336Z,1.20
2022-11-10T02:19:17.981Z,1.75
2022-11-10T02:21:50.875Z,1.80
2022-11-10T02:24:20.897Z,1.30
2022-11-10T02:26:55.989Z,1.58
2022-11-10T02:29:26.694Z,1.60
2022-11-10T02:31:56.539Z,1.80
2022-11-10T02:34:26.354Z,1.45
2022-11-10T02:36:58.780Z,1.17
2022-11-10T02:39:28.637Z,1.38
2022-11-10T02:41:58.619Z,1.38
2022-11-10T02:44:28.488Z,1.70
2022-11-10T02:46:58.332Z,1.60
2022-11-10T02:49:28.167Z,1.60
2022-11-10T02:52:00.635Z,1.20
2022-11-10T02:54:30.484Z,1.38
2022-11-10T02:57:02.832Z,1.65
2022-11-10T02:59:32.738Z,1.85
2022-11-10T03:02:02.544Z,1.60
2022-11-10T03:04:32.421Z,1.77
2022-11-10T03:07:04.927Z,1.70
2022-11-10T03:09:34.795Z,1.58
2022-11-10T03:12:04.639Z,1.70
2022-11-10T03:14:34.519Z,1.63
2022-11-10T03:17:04.401Z,1.70
2022-11-10T03:19:34.252Z,1.50
2022-11-10T03:22:06.731Z,1.63
2022-11-10T03:24:36.572Z,1.90
2022-11-10T03:27:06.871Z,1.65
2022-11-10T03:29:36.787Z,1.80
2022-11-10T03:32:06.651Z,1.67
2022-11-10T03:34:36.516Z,1.58
2022-11-10T03:37:08.967Z,2.10
2022-11-10T03:39:38.798Z,1.50
2022-11-10T03:42:08.792Z,1.50
2022-11-10T03:44:38.657Z,2.03
2022-11-10T03:47:08.597Z,1.77
2022-11-10T03:49:38.448Z,1.48
2022-11-10T03:52:10.897Z,1.70
2022-11-10T03:54:40.736Z,1.70
2022-11-10T03:57:10.617Z,1.63
2022-11-10T03:59:40.468Z,1.60
2022-11-10T04:02:10.412Z,1.17
2022-11-10T04:04:52.810Z,2.00
2022-11-10T04:07:37.868Z,1.90
2022-11-10T04:12:51.225Z,1.75
2022-11-10T04:15:45.689Z,2.00
2022-11-10T04:18:24.728Z,1.67
2022-11-10T04:20:56.780Z,1.70
2022-11-10T04:23:34.880Z,1.75
2022-11-10T04:26:19.570Z,1.90
2022-11-10T04:28:51.024Z,2.53
2022-11-10T04:31:22.985Z,2.72
2022-11-10T04:33:53.920Z,1.30
2022-11-10T04:36:27.608Z,1.58
2022-11-10T04:39:00.133Z,1.85
2022-11-10T04:41:32.476Z,1.60
2022-11-10T04:44:03.761Z,1.45
2022-11-10T04:46:36.574Z,1.83
2022-11-10T04:49:08.978Z,1.95
2022-11-10T04:51:41.098Z,1.95
2022-11-10T04:54:13.996Z,1.98
2022-11-10T04:56:43.880Z,1.80
2022-11-10T04:59:14.800Z,1.20
2022-11-10T05:01:44.669Z,1.67
2022-11-10T05:04:14.500Z,1.90
2022-11-10T05:06:44.374Z,1.90
2022-11-10T05:09:16.839Z,1.77
2022-11-10T05:11:46.650Z,1.70
2022-11-10T05:14:16.482Z,1.95
2022-11-10T05:16:46.307Z,1.80
2022-11-10T05:19:16.161Z,1.77
2022-11-10T05:21:45.996Z,1.92
2022-11-10T05:24:18.426Z,2.03
2022-11-10T05:26:48.268Z,2.10
2022-11-10T05:29:18.141Z,1.83
2022-11-10T05:31:51.514Z,2.10
2022-11-10T05:34:21.669Z,2.08
2022-11-10T05:36:51.579Z,2.03
2022-11-10T05:39:24.016Z,1.92
2022-11-10T05:41:53.921Z,1.92
2022-11-10T05:44:23.763Z,1.80
2022-11-10T05:46:53.602Z,1.92
2022-11-10T05:49:23.451Z,2.08
2022-11-10T05:51:53.304Z,2.45
2022-11-10T05:54:25.708Z,2.33
2022-11-10T05:56:55.552Z,2.15
2022-11-10T05:59:25.532Z,2.05
2022-11-10T06:01:55.359Z,2.53
2022-11-10T06:04:25.483Z,2.20
2022-11-10T06:06:55.346Z,2.30
2022-11-10T06:09:27.838Z,2.55
2022-11-10T06:11:57.703Z,2.50
2022-11-10T06:14:27.557Z,2.50
2022-11-10T06:16:57.415Z,1.88
2022-11-10T06:19:27.273Z,2.35
2022-11-10T06:22:02.402Z,2.72
2022-11-10T06:24:37.569Z,2.60
2022-11-10T06:27:07.558Z,2.22
2022-11-10T06:29:37.423Z,2.47
2022-11-10T06:32:07.415Z,2.72
2022-11-10T06:34:37.299Z,2.40
2022-11-10T06:37:07.146Z,3.38
2022-11-10T06:39:39.592Z,3.22
2022-11-10T06:42:09.439Z,3.50
2022-11-10T06:44:39.311Z,3.80
2022-11-10T06:47:09.227Z,2.53
2022-11-10T06:49:39.073Z,2.40
2022-11-10T06:52:08.947Z,2.92
2022-11-10T06:54:41.366Z,3.03
2022-11-10T06:57:11.207Z,2.63
2022-11-10T06:59:41.052Z,3.28
2022-11-10T07:02:16.652Z,2.58
2022-11-10T07:04:46.519Z,2.92
2022-11-10T07:07:16.431Z,2.30
2022-11-10T07:09:48.947Z,2.70
2022-11-10T07:12:19.733Z,2.83
2022-11-10T07:14:49.566Z,2.40
2022-11-10T07:17:19.446Z,3.90
2022-11-10T07:19:49.298Z,3.45
2022-11-10T07:22:19.156Z,5.00
2022-11-10T07:24:51.582Z,4.60
2022-11-10T07:27:21.540Z,3.67
2022-11-10T07:29:51.462Z,5.57
2022-11-10T07:32:21.322Z,4.35
2022-11-10T07:34:51.472Z,4.22
2022-11-10T07:37:21.343Z,3.78
2022-11-10T07:39:53.888Z,3.25
2022-11-10T07:42:23.726Z,3.15
2022-11-10T07:44:53.575Z,2.67
2022-11-10T07:47:23.392Z,2.90
2022-11-10T07:49:53.279Z,2.55
2022-11-10T07:52:23.117Z,2.85
2022-11-10T07:54:55.566Z,2.78
2022-11-10T07:57:25.383Z,2.75
2022-11-10T07:59:57.880Z,2.97
2022-11-10T08:02:27.992Z,2.88
2022-11-10T08:04:57.854Z,3.17
2022-11-10T08:07:27.760Z,2.78
2022-11-10T08:10:00.187Z,2.78
2022-11-10T08:12:33.587Z,3.22
2022-11-10T08:15:03.730Z,2.35
2022-11-10T08:17:33.577Z,3.38
2022-11-10T08:20:04.731Z,3.13
2022-11-10T08:22:34.602Z,3.10
2022-11-10T08:25:08.308Z,2.85
2022-11-10T08:27:38.196Z,2.58
2022-11-10T08:30:10.954Z,3.10
2022-11-10T08:32:40.806Z,3.15
2022-11-10T08:35:11.608Z,2.65
2022-11-10T08:37:41.443Z,3.15
2022-11-10T08:40:15.644Z,2.83
2022-11-10T08:42:45.489Z,3.10
2022-11-10T08:45:15.909Z,2.70
2022-11-10T08:47:47.411Z,2.83
2022-11-10T08:50:17.970Z,2.60
2022-11-10T08:52:47.810Z,2.80
2022-11-10T08:55:20.434Z,2.22
2022-11-10T08:57:50.498Z,3.53
2022-11-10T09:00:21.704Z,2.42
2022-11-10T09:02:52.049Z,2.78
2022-11-10T09:05:22.058Z,2.70
2022-11-10T09:07:53.474Z,3.20
2022-11-10T09:10:25.960Z,3.35
2022-11-10T09:12:55.872Z,2.63
2022-11-10T09:15:25.712Z,2.05
2022-11-10T09:17:55.543Z,1.55
2022-11-10T09:20:25.369Z,2.50
2022-11-10T09:22:55.240Z,3.30
2022-11-10T09:25:27.698Z,3.08
2022-11-10T09:27:57.531Z,3.03
2022-11-10T09:30:28.468Z,2.60
2022-11-10T09:32:59.606Z,3.47
2022-11-10T09:35:30.513Z,3.35
2022-11-10T09:38:00.398Z,2.80
2022-11-10T09:40:54.071Z,2.53
2022-11-10T09:43:31.140Z,2.42
2022-11-10T09:46:06.623Z,2.30
2022-11-10T09:48:40.144Z,2.75
2022-11-10T09:51:15.491Z,2.80
2022-11-10T09:53:53.246Z,2.78
2022-11-10T09:56:34.911Z,2.25
2022-11-10T09:59:10.166Z,2.97
2022-11-10T10:01:51.038Z,2.30
2022-11-10T10:04:56.072Z,2.55
2022-11-10T10:07:30.399Z,2.33
2022-11-10T10:10:06.723Z,2.35
2022-11-10T10:12:57.859Z,2.53
2022-11-10T10:15:38.622Z,2.45
2022-11-10T10:18:24.175Z,3.05
2022-11-10T10:21:22.445Z,2.17
2022-11-10T10:24:19.873Z,2.90
2022-11-10T10:26:53.934Z,1.80
2022-11-10T10:29:33.127Z,1.83
2022-11-10T10:32:07.801Z,2.95
2022-11-10T10:34:37.807Z,2.05
2022-11-10T10:37:07.780Z,2.58
2022-11-10T10:39:45.128Z,2.53
2022-11-10T10:42:31.080Z,1.63
2022-11-10T10:45:23.768Z,1.60
2022-11-10T10:47:55.854Z,2.70
2022-11-10T10:50:30.508Z,2.30
2022-11-10T10:55:51.215Z,2.65
2022-11-10T10:58:30.613Z,2.10
2022-11-10T11:01:09.130Z,2.03
2022-11-10T11:03:47.670Z,1.98
2022-11-10T11:06:27.782Z,2.88
2022-11-10T11:09:03.412Z,2.35
2022-11-10T11:11:36.146Z,2.53
2022-11-10T11:14:18.009Z,2.00
2022-11-10T11:16:56.281Z,2.15
2022-11-10T11:19:28.670Z,1.60
2022-11-10T11:22:31.692Z,1.73
2022-11-10T11:25:13.675Z,2.50
2022-11-10T11:27:55.306Z,1.83
2022-11-10T11:30:26.933Z,2.10
2022-11-10T11:33:38.180Z,2.53
2022-11-10T11:36:21.848Z,2.22
2022-11-10T11:39:01.064Z,1.58
2022-11-10T11:41:40.817Z,2.17
2022-11-10T11:44:27.407Z,2.10
2022-11-10T11:47:12.230Z,2.22
2022-11-10T11:50:02.534Z,1.45
2022-11-10T11:52:39.139Z,2.35
2022-11-10T11:55:23.021Z,1.75
2022-11-10T11:58:08.759Z,2.13
2022-11-10T12:00:48.234Z,1.75
2022-11-10T12:03:40.173Z,1.90
2022-11-10T12:06:43.253Z,1.65
2022-11-10T12:09:23.885Z,1.83
2022-11-10T12:12:09.320Z,1.75
2022-11-10T12:14:53.912Z,2.20
2022-11-10T12:17:42.379Z,2.95
2022-11-10T12:20:29.066Z,1.70
2022-11-10T12:23:11.019Z,2.13
2022-11-10T12:25:56.448Z,2.08
2022-11-10T12:28:31.096Z,1.85
2022-11-10T12:33:41.061Z,2.10
2022-11-10T12:36:16.557Z,2.08
2022-11-10T12:39:00.091Z,1.77
2022-11-10T12:41:40.082Z,2.20
2022-11-10T12:44:21.632Z,1.92
2022-11-10T12:46:56.897Z,2.00
2022-11-10T12:49:32.072Z,1.45
2022-11-10T12:52:11.215Z,2.17
2022-11-10T12:54:42.674Z,1.65
2022-11-10T12:57:21.443Z,2.40
2022-11-10T12:59:58.975Z,2.00
2022-11-10T13:02:34.740Z,1.48
2022-11-10T13:05:30.536Z,1.75
2022-11-10T13:08:40.209Z,1.63
2022-11-10T13:11:31.031Z,1.52
2022-11-10T13:14:06.483Z,1.55
2022-11-10T13:16:54.108Z,1.98
2022-11-10T13:19:55.911Z,1.90
2022-11-10T13:22:37.088Z,1.40
2022-11-10T13:26:05.748Z,2.08
2022-11-10T13:29:04.325Z,1.63
2022-11-10T13:31:55.958Z,1.30
2022-11-10T13:34:36.808Z,1.70
2022-11-10T13:37:50.859Z,1.45
2022-11-10T13:40:32.290Z,1.83
2022-11-10T13:43:27.842Z,1.48
2022-11-10T13:46:10.258Z,1.75
2022-11-10T13:48:58.625Z,2.17
2022-11-10T13:51:40.426Z,1.60
2022-11-10T13:54:52.367Z,1.45
2022-11-10T13:57:32.935Z,1.60
2022-11-10T14:00:07.945Z,1.40
2022-11-10T14:02:56.453Z,1.52
2022-11-10T14:06:09.312Z,1.50
2022-11-10T14:08:49.757Z,1.65
2022-11-10T14:11:25.776Z,1.20
2022-11-10T14:14:07.890Z,1.80
2022-11-10T14:16:44.815Z,2.00
2022-11-10T14:19:34.936Z,1.80
2022-11-10T14:22:20.228Z,1.67
2022-11-10T14:25:00.310Z,2.40
2022-11-10T14:27:32.556Z,1.77
2022-11-10T14:30:26.056Z,1.80
2022-11-10T14:33:01.084Z,1.92
2022-11-10T14:35:38.633Z,1.70
2022-11-10T14:38:20.874Z,1.20
2022-11-10T14:40:51.956Z,1.50
2022-11-10T14:43:33.942Z,1.55
2022-11-10T14:46:05.099Z,1.90
2022-11-10T14:48:36.914Z,1.15
2022-11-10T14:51:15.952Z,2.67
2022-11-10T14:53:52.376Z,2.15
2022-11-10T14:56:26.466Z,1.65
2022-11-10T14:58:59.220Z,1.58
2022-11-10T15:01:34.798Z,1.70
2022-11-10T15:04:06.632Z,1.67
2022-11-10T15:06:45.748Z,1.85
2022-11-10T15:09:19.512Z,1.83
2022-11-10T15:11:53.714Z,2.30
2022-11-10T15:14:36.561Z,1.77
2022-11-10T15:17:09.825Z,1.50
2022-11-10T15:19:41.727Z,1.70
2022-11-10T15:22:24.181Z,1.80
2022-11-10T15:24:55.269Z,2.00
2022-11-10T15:27:28.387Z,2.17
2022-11-10T15:30:01.290Z,1.85
2022-11-10T15:32:37.107Z,1.65
2022-11-10T15:35:15.446Z,2.33
2022-11-10T15:38:02.267Z,2.13
2022-11-10T15:40:39.710Z,2.08
2022-11-10T15:43:30.476Z,2.22
2022-11-10T15:46:03.694Z,2.08
2022-11-10T15:48:41.438Z,2.17
2022-11-10T15:51:15.082Z,1.85
2022-11-10T15:53:50.202Z,2.55
2022-11-10T15:56:23.074Z,2.47
2022-11-10T15:59:00.663Z,1.67
2022-11-10T16:01:31.913Z,2.10
2022-11-10T16:04:02.159Z,2.67
2022-11-10T16:06:32.499Z,1.92
2022-11-10T16:09:04.975Z,2.10
2022-11-10T16:11:35.708Z,2.22
2022-11-10T16:14:07.655Z,2.45
2022-11-10T16:16:37.491Z,2.05
2022-11-10T16:19:07.859Z,2.63
2022-11-10T16:21:37.772Z,2.08
2022-11-10T16:24:10.729Z,1.85
2022-11-10T16:26:40.739Z,2.17
2022-11-10T16:29:16.027Z,2.17
2022-11-10T16:31:45.861Z,2.10
2022-11-10T16:34:17.413Z,2.63
2022-11-10T16:36:47.546Z,2.35
2022-11-10T16:39:20.871Z,2.55
2022-11-10T16:41:52.707Z,3.33
2022-11-10T16:44:25.227Z,3.25
2022-11-10T16:46:58.330Z,2.85
2022-11-10T16:49:34.281Z,3.85
2022-11-10T16:52:14.263Z,3.40
2022-11-10T16:54:46.681Z,2.85
2022-11-10T16:57:19.842Z,2.50
2022-11-10T16:59:49.662Z,2.92
2022-11-10T17:02:31.402Z,2.80
2022-11-10T17:05:01.693Z,2.38
2022-11-10T17:07:32.267Z,2.80
2022-11-10T17:10:05.074Z,2.97
2022-11-10T17:12:35.412Z,2.10
2022-11-10T17:15:05.521Z,2.88
2022-11-10T17:17:36.752Z,2.42
2022-11-10T17:20:10.298Z,2.92
2022-11-10T17:22:40.496Z,3.03
2022-11-10T17:25:21.305Z,2.85
2022-11-10T17:27:51.132Z,3.00
2022-11-10T17:30:21.437Z,2.70
2022-11-10T17:33:09.541Z,2.50
2022-11-10T17:35:46.721Z,3.03
2022-11-10T17:38:23.336Z,2.47
2022-11-10T17:40:56.480Z,3.38
2022-11-10T17:43:26.627Z,2.83
2022-11-10T17:45:56.655Z,2.80
2022-11-10T17:48:26.497Z,2.67
2022-11-10T17:50:56.349Z,2.35
2022-11-10T17:53:28.541Z,2.88
2022-11-10T17:56:01.004Z,2.85
2022-11-10T17:58:30.886Z,2.60
2022-11-10T18:01:00.772Z,3.13
2022-11-10T18:03:32.976Z,2.65
2022-11-10T18:06:02.848Z,2.92
2022-11-10T18:08:32.697Z,2.60
2022-11-10T18:11:05.124Z,3.50
2022-11-10T18:13:35.031Z,2.92
2022-11-10T18:16:04.877Z,2.80
2022-11-10T18:18:35.039Z,3.47
2022-11-10T18:21:05.191Z,4.07
2022-11-10T18:23:35.224Z,3.05
2022-11-10T18:26:11.861Z,3.30
2022-11-10T18:28:43.302Z,3.40
2022-11-10T18:31:15.647Z,3.50
2022-11-10T18:33:45.526Z,3.30
2022-11-10T18:36:15.412Z,3.67
2022-11-10T18:38:45.382Z,2.50
2022-11-10T18:41:39.221Z,2.70
2022-11-10T18:44:09.079Z,2.53
2022-11-10T18:46:39.088Z,2.45
2022-11-10T18:49:09.337Z,2.55
2022-11-10T18:51:39.777Z,3.17
2022-11-10T18:54:10.025Z,3.15
2022-11-10T18:56:42.616Z,2.72
2022-11-10T18:59:12.512Z,2.90
2022-11-10T19:01:42.422Z,3.17
2022-11-10T19:04:12.879Z,3.00
2022-11-10T19:06:43.073Z,2.50
2022-11-10T19:09:14.594Z,2.30
2022-11-10T19:11:47.155Z,2.80
2022-11-10T19:14:17.048Z,2.72
2022-11-10T19:16:47.108Z,3.08
2022-11-10T19:19:17.285Z,2.85
2022-11-10T19:21:49.946Z,3.08
2022-11-10T19:24:27.768Z,2.80
2022-11-10T19:27:00.828Z,2.50
2022-11-10T19:29:31.320Z,3.28
2022-11-10T19:32:01.175Z,3.33
2022-11-10T19:34:31.561Z,3.15
2022-11-10T19:37:01.397Z,3.03
2022-11-10T19:39:31.335Z,3.15
2022-11-10T19:42:03.814Z,3.22
2022-11-10T19:44:33.991Z,3.65
2022-11-10T19:47:03.836Z,3.35
2022-11-10T19:49:33.679Z,3.00
2022-11-10T19:52:03.580Z,3.92
2022-11-10T19:54:33.436Z,2.90
2022-11-10T19:57:06.805Z,3.45
2022-11-10T19:59:36.681Z,3.00
2022-11-10T20:02:06.629Z,2.97
2022-11-10T20:04:56.470Z,3.53
2022-11-10T20:07:53.845Z,3.15
2022-11-10T20:10:24.918Z,3.28
2022-11-10T20:12:57.450Z,3.38
2022-11-10T20:15:27.465Z,2.90
2022-11-10T20:17:57.306Z,3.60
2022-11-10T20:20:27.181Z,2.92
2022-11-10T20:22:57.020Z,2.90
2022-11-10T20:25:26.884Z,2.70
2022-11-10T20:28:01.366Z,2.40
2022-11-10T20:30:32.462Z,3.22
2022-11-10T20:33:02.383Z,2.67
2022-11-10T20:35:32.677Z,2.80
2022-11-10T20:38:02.502Z,3.33
2022-11-10T20:40:48.396Z,2.58
2022-11-10T20:43:21.213Z,2.58
2022-11-10T20:45:55.212Z,2.63
2022-11-10T20:48:26.734Z,2.77
2022-11-10T20:50:56.584Z,2.40
2022-11-10T20:53:26.557Z,3.08
2022-11-10T20:56:02.088Z,2.53
2022-11-10T20:58:34.967Z,2.78
2022-11-10T21:01:06.321Z,2.78
2022-11-10T21:03:36.953Z,2.60
2022-11-10T21:06:07.795Z,2.30
2022-11-10T21:08:37.864Z,2.30
2022-11-10T21:11:09.418Z,2.55
2022-11-10T21:13:39.255Z,2.30
2022-11-10T21:16:10.186Z,2.90
2022-11-10T21:18:40.364Z,2.75
2022-11-10T21:21:23.897Z,2.30
2022-11-10T21:23:57.480Z,2.75
2022-11-10T21:26:27.484Z,2.25
2022-11-10T21:29:00.479Z,2.10
2022-11-10T21:31:31.257Z,2.22
2022-11-10T21:34:01.576Z,2.42
2022-11-10T21:36:31.923Z,2.45
2022-11-10T21:39:02.171Z,2.30
2022-11-10T21:41:32.156Z,2.97
2022-11-10T21:44:04.678Z,2.72
2022-11-10T21:46:34.518Z,2.55
2022-11-10T21:49:07.658Z,2.30
2022-11-10T21:51:37.845Z,2.35
2022-11-10T21:54:07.904Z,2.30
2022-11-10T21:56:37.763Z,2.42
2022-11-10T21:59:10.163Z,2.20
2022-11-10T22:01:40.222Z,2.30
2022-11-10T22:04:10.295Z,2.80
2022-11-10T22:06:53.032Z,2.40
2022-11-10T22:09:43.547Z,2.05
2022-11-10T22:12:28.430Z,2.35
2022-11-10T22:15:13.588Z,2.75
2022-11-10T22:17:56.083Z,2.25
2022-11-10T22:20:26.222Z,2.00
2022-11-10T22:22:56.078Z,2.15
2022-11-10T22:25:26.115Z,1.88
2022-11-10T22:27:55.976Z,2.70
2022-11-10T22:30:28.410Z,2.03
2022-11-10T22:33:18.223Z,1.88
2022-11-10T22:35:48.043Z,2.25
2022-11-10T22:38:17.888Z,2.25
2022-11-10T22:41:00.245Z,2.70
2022-11-10T22:43:42.575Z,1.85
2022-11-10T22:46:14.995Z,2.15
2022-11-10T22:48:44.823Z,2.33
2022-11-10T22:51:14.696Z,2.50
2022-11-10T22:53:44.591Z,2.65
2022-11-10T22:56:14.571Z,2.05
2022-11-10T22:58:44.448Z,2.20
2022-11-10T23:01:17.356Z,3.08
2022-11-10T23:03:47.297Z,2.40
2022-11-10T23:06:17.679Z,2.08
2022-11-10T23:08:47.631Z,2.20
2022-11-10T23:11:21.895Z,2.67
2022-11-10T23:13:52.350Z,1.98
2022-11-10T23:16:27.059Z,1.92
2022-11-10T23:21:31.446Z,2.47
2022-11-10T23:24:01.473Z,2.72
2022-11-10T23:26:34.046Z,2.10
2022-11-10T23:29:04.083Z,2.22
2022-11-10T23:31:36.520Z,2.25
2022-11-10T23:34:06.529Z,2.13
2022-11-10T23:36:36.361Z,1.80
2022-11-10T23:39:06.424Z,2.40
2022-11-10T23:41:36.273Z,3.17
2022-11-10T23:44:06.272Z,2.83
2022-11-10T23:46:38.698Z,2.92
2022-11-10T23:49:08.536Z,2.25
2022-11-10T23:51:38.355Z,2.17
2022-11-10T23:54:08.294Z,2.20
2022-11-10T23:56:38.200Z,2.78
2022-11-10T23:59:08.040Z,2.90
